sensor_id;sensor_type;location;lat;lon;timestamp;pressure;altitude;pressure_sealevel;temperature;humidity
68669;BME280;55652;49.454;7.798;2022-08-21T15:33:33;98453.91;;;27.32;45.03
68669;BME280;55652;49.454;7.798;2022-08-21T15:35:59;98445.53;;;27.42;45.16
68669;BME280;55652;49.454;7.798;2022-08-21T15:38:24;98449.44;;;27.55;47.43
68669;BME280;55652;49.454;7.798;2022-08-21T15:40:50;98449.53;;;27.69;47.32
68669;BME280;55652;49.454;7.798;2022-08-21T15:43:24;98443.59;;;27.81;46.08
68669;BME280;55652;49.454;7.798;2022-08-21T15:45:51;98445.38;;;27.91;43.67
68669;BME280;55652;49.454;7.798;2022-08-21T15:48:17;98439.94;;;28.04;43.02
68669;BME280;55652;49.454;7.798;2022-08-21T15:50:42;98439.44;;;28.16;45.31
68669;BME280;55652;49.454;7.798;2022-08-21T15:53:08;98439.19;;;28.31;45.66
68669;BME280;55652;49.454;7.798;2022-08-21T15:55:34;98443.63;;;28.46;48.59
68669;BME280;55652;49.454;7.798;2022-08-21T15:58:00;98436.81;;;28.58;48.83
68669;BME280;55652;49.454;7.798;2022-08-21T16:00:26;98437.94;;;28.70;50.69
68669;BME280;55652;49.454;7.798;2022-08-21T16:02:55;98439.34;;;28.82;51.88
68669;BME280;55652;49.454;7.798;2022-08-21T16:05:22;98433.94;;;28.90;51.76
68669;BME280;55652;49.454;7.798;2022-08-21T16:07:49;98432.75;;;28.96;46.35
68669;BME280;55652;49.454;7.798;2022-08-21T16:10:18;98439.75;;;29.03;47.90
68669;BME280;55652;49.454;7.798;2022-08-21T16:12:51;98438.88;;;29.07;47.93
68669;BME280;55652;49.454;7.798;2022-08-21T16:15:19;98425.19;;;29.16;48.27
68669;BME280;55652;49.454;7.798;2022-08-21T16:17:46;98432.31;;;29.17;44.50
68669;BME280;55652;49.454;7.798;2022-08-21T16:20:16;98434.78;;;29.18;43.68
68669;BME280;55652;49.454;7.798;2022-08-21T16:22:43;98427.84;;;29.21;43.26
68669;BME280;55652;49.454;7.798;2022-08-21T16:25:09;98424.47;;;29.24;42.40
68669;BME280;55652;49.454;7.798;2022-08-21T16:27:35;98427.41;;;29.28;42.31
68669;BME280;55652;49.454;7.798;2022-08-21T16:30:03;98423.91;;;29.36;42.64
68669;BME280;55652;49.454;7.798;2022-08-21T16:32:29;98419.72;;;29.38;43.69
68669;BME280;55652;49.454;7.798;2022-08-21T16:34:55;98420.41;;;29.44;43.12
68669;BME280;55652;49.454;7.798;2022-08-21T16:37:21;98422.06;;;29.45;43.05
68669;BME280;55652;49.454;7.798;2022-08-21T16:39:47;98420.63;;;29.48;42.83
68669;BME280;55652;49.454;7.798;2022-08-21T16:42:17;98414.81;;;29.49;41.77
68669;BME280;55652;49.454;7.798;2022-08-21T16:44:43;98416.13;;;29.52;41.62
68669;BME280;55652;49.454;7.798;2022-08-21T16:47:09;98414.38;;;29.56;41.57
68669;BME280;55652;49.454;7.798;2022-08-21T16:49:35;98417.31;;;29.59;41.43
68669;BME280;55652;49.454;7.798;2022-08-21T16:52:01;98418.63;;;29.62;41.63
68669;BME280;55652;49.454;7.798;2022-08-21T16:54:27;98414.47;;;29.65;41.75
68669;BME280;55652;49.454;7.798;2022-08-21T16:56:55;98405.91;;;29.66;41.55
68669;BME280;55652;49.454;7.798;2022-08-21T16:59:20;98407.41;;;29.72;41.71
68669;BME280;55652;49.454;7.798;2022-08-21T17:01:46;98412.63;;;29.74;41.79
68669;BME280;55652;49.454;7.798;2022-08-21T17:04:11;98402.41;;;29.74;41.52
68669;BME280;55652;49.454;7.798;2022-08-21T17:06:37;98407.28;;;29.77;41.49
68669;BME280;55652;49.454;7.798;2022-08-21T17:09:02;98407.28;;;29.77;41.50
68669;BME280;55652;49.454;7.798;2022-08-21T17:13:55;98399.53;;;29.79;40.99
68669;BME280;55652;49.454;7.798;2022-08-21T17:16:22;98394.53;;;29.81;41.02
68669;BME280;55652;49.454;7.798;2022-08-21T17:18:47;98397.88;;;29.78;40.48
68669;BME280;55652;49.454;7.798;2022-08-21T17:21:14;98400.03;;;29.81;40.66
68669;BME280;55652;49.454;7.798;2022-08-21T17:23:40;98395.81;;;29.84;40.78
68669;BME280;55652;49.454;7.798;2022-08-21T17:26:05;98397.00;;;29.92;41.42
68669;BME280;55652;49.454;7.798;2022-08-21T17:28:35;98399.28;;;29.90;40.68
